createdAt,value
2018-11-28T00:00:24.138Z,12.13
2018-11-28T00:02:53.056Z,7.40
2018-11-28T00:05:21.986Z,7.93
2018-11-28T00:07:50.965Z,10.83
2018-11-28T00:10:19.916Z,9.03
2018-11-28T00:12:48.824Z,8.70
2018-11-28T00:15:17.772Z,9.57
2018-11-28T00:17:46.693Z,10.10
2018-11-28T00:20:18.116Z,14.10
2018-11-28T00:22:47.120Z,11.60
2018-11-28T00:25:16.567Z,9.43
2018-11-28T00:27:45.512Z,8.00
2018-11-28T00:30:16.324Z,10.10
2018-11-28T00:32:45.337Z,12.33
2018-11-28T00:35:15.287Z,13.77
2018-11-28T00:37:44.248Z,11.90
2018-11-28T00:40:14.167Z,8.53
2018-11-28T00:42:43.099Z,9.90
2018-11-28T00:45:13.988Z,10.83
2018-11-28T00:47:42.937Z,10.03
2018-11-28T00:50:16.742Z,7.80
2018-11-28T00:52:45.704Z,10.77
2018-11-28T00:55:15.508Z,12.60
2018-11-28T00:57:44.509Z,11.30
2018-11-28T01:00:14.756Z,9.43
2018-11-28T01:02:43.697Z,10.10
2018-11-28T01:05:13.147Z,10.03
2018-11-28T01:07:42.510Z,11.47
2018-11-28T01:10:17.397Z,10.60
2018-11-28T01:12:46.645Z,8.80
2018-11-28T01:15:16.619Z,9.90
2018-11-28T01:17:45.943Z,10.70
2018-11-28T01:20:17.992Z,12.23
2018-11-28T01:22:47.015Z,8.83
2018-11-28T01:25:17.059Z,13.53
2018-11-28T01:27:46.076Z,10.20
2018-11-28T01:30:18.932Z,10.70
2018-11-28T01:32:47.965Z,7.50
2018-11-28T01:35:17.881Z,7.37
2018-11-28T01:37:46.900Z,9.13
2018-11-28T01:40:17.660Z,9.90
2018-11-28T01:42:46.737Z,14.13
2018-11-28T01:45:16.689Z,8.10
2018-11-28T01:47:45.708Z,7.97
2018-11-28T01:50:15.793Z,10.80
2018-11-28T01:52:44.763Z,7.47
2018-11-28T01:55:16.049Z,11.37
2018-11-28T01:57:45.074Z,7.33
2018-11-28T02:00:16.506Z,8.37
2018-11-28T02:02:46.843Z,6.77
2018-11-28T02:05:15.759Z,7.00
2018-11-28T02:07:44.721Z,9.47
2018-11-28T02:10:14.663Z,11.17
2018-11-28T02:12:43.627Z,8.23
2018-11-28T02:15:13.839Z,9.00
2018-11-28T02:17:42.769Z,11.90
2018-11-28T02:20:17.345Z,13.00
2018-11-28T02:22:46.557Z,8.03
2018-11-28T02:25:16.382Z,7.27
2018-11-28T02:27:45.847Z,10.47
2018-11-28T02:30:16.706Z,12.20
2018-11-28T02:32:46.215Z,8.93
2018-11-28T02:35:15.686Z,11.40
2018-11-28T02:37:44.644Z,10.83
2018-11-28T02:40:14.749Z,8.80
2018-11-28T02:42:43.802Z,10.60
2018-11-28T02:45:14.562Z,6.40
2018-11-28T02:47:43.513Z,7.37
2018-11-28T02:50:12.474Z,9.60
2018-11-28T02:52:41.485Z,7.07
2018-11-28T02:55:12.461Z,6.73
2018-11-28T02:57:42.231Z,10.80
2018-11-28T03:00:16.357Z,9.43
2018-11-28T03:02:45.348Z,7.07
2018-11-28T03:05:14.562Z,9.87
2018-11-28T03:07:43.481Z,9.20
2018-11-28T03:10:23.599Z,8.40
2018-11-28T03:12:52.527Z,7.77
2018-11-28T03:15:28.181Z,11.77
2018-11-28T03:17:57.123Z,11.60
2018-11-28T03:20:26.113Z,7.97
2018-11-28T03:22:55.052Z,8.77
2018-11-28T03:25:23.982Z,7.63
2018-11-28T03:27:52.939Z,9.03
2018-11-28T03:30:21.974Z,9.93
2018-11-28T03:32:51.001Z,8.37
2018-11-28T03:35:19.956Z,8.70
2018-11-28T03:37:48.927Z,10.67
2018-11-28T03:40:17.858Z,7.17
2018-11-28T03:42:46.794Z,9.67
2018-11-28T03:45:16.468Z,8.17
2018-11-28T03:47:45.888Z,7.23
2018-11-28T03:50:15.566Z,6.93
2018-11-28T03:52:44.634Z,8.03
2018-11-28T03:55:14.444Z,7.67
2018-11-28T03:57:45.411Z,7.80
2018-11-28T04:00:16.333Z,9.33
2018-11-28T04:02:45.296Z,8.73
2018-11-28T04:05:14.265Z,12.30
2018-11-28T04:07:43.309Z,7.77
2018-11-28T04:10:14.091Z,9.50
2018-11-28T04:12:43.857Z,8.60
2018-11-28T04:15:19.784Z,9.90
2018-11-28T04:17:48.873Z,7.13
2018-11-28T04:20:19.784Z,9.20
2018-11-28T04:22:48.762Z,7.13
2018-11-28T04:25:19.240Z,9.60
2018-11-28T04:27:48.255Z,8.73
2018-11-28T04:30:19.065Z,7.10
2018-11-28T04:32:48.537Z,8.23
2018-11-28T04:35:17.488Z,7.90
2018-11-28T04:37:46.742Z,6.77
2018-11-28T04:40:18.527Z,7.77
2018-11-28T04:42:48.161Z,9.83
2018-11-28T04:45:19.967Z,7.70
2018-11-28T04:47:49.049Z,7.83
2018-11-28T04:50:17.991Z,8.27
2018-11-28T04:52:46.928Z,5.87
2018-11-28T04:55:17.832Z,5.80
2018-11-28T04:57:46.912Z,9.07
2018-11-28T05:00:16.991Z,7.10
2018-11-28T05:02:45.991Z,8.57
2018-11-28T05:05:14.885Z,7.83
2018-11-28T05:07:44.700Z,7.50
2018-11-28T05:10:14.731Z,7.03
2018-11-28T05:12:43.731Z,8.60
2018-11-28T05:15:16.528Z,6.43
2018-11-28T05:17:47.518Z,11.93
2018-11-28T05:20:17.696Z,6.17
2018-11-28T05:22:46.618Z,7.50
2018-11-28T05:25:17.481Z,7.50
2018-11-28T05:27:46.734Z,8.37
2018-11-28T05:30:16.744Z,5.90
2018-11-28T05:32:45.744Z,8.57
2018-11-28T05:35:16.695Z,7.20
2018-11-28T05:37:45.805Z,9.10
2018-11-28T05:40:23.380Z,8.53
2018-11-28T05:42:52.452Z,7.30
2018-11-28T05:45:21.424Z,8.77
2018-11-28T05:47:50.382Z,5.43
2018-11-28T05:50:20.288Z,6.07
2018-11-28T05:52:49.231Z,9.60
2018-11-28T05:55:20.327Z,8.53
2018-11-28T05:57:49.292Z,5.40
2018-11-28T06:00:40.246Z,5.17
2018-11-28T06:03:11.873Z,4.87
2018-11-28T06:05:42.013Z,7.87
2018-11-28T06:08:10.969Z,6.27
2018-11-28T06:10:39.897Z,6.77
2018-11-28T06:13:08.947Z,7.57
2018-11-28T06:15:37.898Z,16.20
2018-11-28T06:18:08.175Z,8.40
2018-11-28T06:20:37.170Z,10.10
2018-11-28T06:23:06.368Z,5.67
2018-11-28T06:25:35.402Z,7.30
2018-11-28T06:28:04.632Z,6.37
2018-11-28T06:30:33.537Z,8.13
2018-11-28T06:33:02.463Z,5.13
2018-11-28T06:35:31.419Z,6.90
2018-11-28T06:38:00.352Z,9.93
2018-11-28T06:40:29.301Z,12.43
2018-11-28T06:42:58.267Z,6.43
2018-11-28T06:45:27.232Z,7.43
2018-11-28T06:47:56.158Z,7.00
2018-11-28T06:50:25.123Z,8.57
2018-11-28T06:52:54.090Z,7.40
2018-11-28T06:55:23.003Z,5.13
2018-11-28T06:57:51.967Z,7.83
2018-11-28T07:00:21.813Z,7.47
2018-11-28T07:02:51.797Z,6.87
2018-11-28T07:05:21.219Z,8.00
2018-11-28T07:07:50.287Z,6.90
2018-11-28T07:10:20.147Z,5.03
2018-11-28T07:12:49.188Z,7.37
2018-11-28T07:15:19.438Z,7.97
2018-11-28T07:17:48.432Z,8.10
2018-11-28T07:20:17.575Z,7.13
2018-11-28T07:22:46.526Z,8.33
2018-11-28T07:25:17.402Z,6.70
2018-11-28T07:27:47.241Z,5.57
2018-11-28T07:30:19.193Z,7.63
2018-11-28T07:32:49.096Z,10.17
2018-11-28T07:35:18.898Z,6.47
2018-11-28T07:37:47.816Z,9.60
2018-11-28T07:40:22.174Z,9.10
2018-11-28T07:43:11.533Z,8.27
2018-11-28T07:45:42.949Z,9.47
2018-11-28T07:48:11.957Z,7.40
2018-11-28T07:50:40.901Z,5.67
2018-11-28T07:53:09.867Z,7.17
2018-11-28T07:55:38.752Z,7.17
2018-11-28T07:58:07.709Z,8.20
2018-11-28T08:00:37.158Z,9.57
2018-11-28T08:03:07.713Z,8.00
2018-11-28T08:05:37.641Z,8.53
2018-11-28T08:08:08.381Z,6.73
2018-11-28T08:10:37.507Z,6.60
2018-11-28T08:13:07.151Z,6.53
2018-11-28T08:15:36.079Z,14.33
2018-11-28T08:18:05.020Z,8.43
2018-11-28T08:20:34.411Z,7.53
2018-11-28T08:23:03.366Z,9.77
2018-11-28T08:25:32.370Z,8.10
2018-11-28T08:28:01.318Z,8.77
2018-11-28T08:30:30.244Z,9.77
2018-11-28T08:32:59.184Z,10.17
2018-11-28T08:35:28.136Z,7.43
2018-11-28T08:37:57.045Z,7.03
2018-11-28T08:40:26.830Z,8.77
2018-11-28T08:42:57.732Z,8.90
2018-11-28T08:45:26.681Z,15.87
2018-11-28T08:47:57.927Z,9.40
2018-11-28T08:50:29.272Z,11.50
2018-11-28T08:52:58.236Z,10.77
2018-11-28T08:55:27.328Z,12.57
2018-11-28T08:57:56.279Z,12.40
2018-11-28T09:00:26.302Z,12.07
2018-11-28T09:02:56.234Z,17.17
2018-11-28T09:05:25.161Z,18.57
2018-11-28T09:07:54.091Z,13.93
2018-11-28T09:10:23.088Z,16.80
2018-11-28T09:12:51.985Z,13.57
2018-11-28T09:15:22.151Z,17.43
2018-11-28T09:17:51.173Z,16.73
2018-11-28T09:20:20.177Z,20.33
2018-11-28T09:22:49.144Z,23.60
2018-11-28T09:25:18.690Z,21.97
2018-11-28T09:27:50.877Z,16.17
2018-11-28T09:30:20.389Z,21.73
2018-11-28T09:32:50.092Z,21.60
2018-11-28T09:35:19.389Z,23.97
2018-11-28T09:37:48.345Z,21.10
2018-11-28T09:40:19.291Z,21.23
2018-11-28T09:42:48.576Z,23.47
2018-11-28T09:45:18.205Z,22.00
2018-11-28T09:47:47.481Z,24.17
2018-11-28T09:50:18.447Z,25.47
2018-11-28T09:52:47.475Z,23.97
2018-11-28T09:55:20.447Z,23.33
2018-11-28T09:57:49.427Z,20.47
2018-11-28T10:00:24.295Z,19.60
2018-11-28T10:02:54.225Z,20.37
2018-11-28T10:05:25.347Z,26.97
2018-11-28T10:07:54.291Z,21.03
2018-11-28T10:10:23.241Z,25.47
2018-11-28T10:12:52.174Z,23.07
2018-11-28T10:15:22.020Z,23.80
2018-11-28T10:17:50.952Z,22.17
2018-11-28T10:20:20.147Z,24.10
2018-11-28T10:22:50.115Z,19.73
2018-11-28T10:25:20.368Z,21.43
2018-11-28T10:27:50.747Z,23.83
2018-11-28T10:30:23.682Z,28.87
2018-11-28T10:32:53.213Z,25.97
2018-11-28T10:35:22.136Z,24.50
2018-11-28T10:37:51.443Z,19.10
2018-11-28T10:40:22.204Z,23.20
2018-11-28T10:42:53.281Z,26.17
2018-11-28T10:45:23.280Z,21.37
2018-11-28T10:47:52.213Z,25.63
2018-11-28T10:50:21.156Z,25.63
2018-11-28T10:52:50.095Z,28.00
2018-11-28T10:55:20.912Z,23.87
2018-11-28T10:57:49.849Z,22.03
2018-11-28T11:00:29.927Z,20.47
2018-11-28T11:03:04.166Z,22.57
2018-11-28T11:05:38.449Z,28.83
2018-11-28T11:08:13.024Z,23.47
2018-11-28T11:10:47.268Z,22.37
2018-11-28T11:13:21.584Z,19.00
2018-11-28T11:15:56.211Z,21.70
2018-11-28T11:18:25.874Z,24.20
2018-11-28T11:20:54.789Z,20.87
2018-11-28T11:23:23.778Z,21.93
2018-11-28T11:25:53.088Z,20.77
2018-11-28T11:28:22.021Z,25.67
2018-11-28T11:30:51.070Z,24.47
2018-11-28T11:33:19.991Z,21.20
2018-11-28T11:35:48.940Z,22.40
2018-11-28T11:38:17.866Z,22.23
2018-11-28T11:40:46.825Z,24.50
2018-11-28T11:43:15.772Z,25.17
2018-11-28T11:45:44.715Z,18.73
2018-11-28T11:48:13.659Z,21.47
2018-11-28T11:50:42.617Z,19.17
2018-11-28T11:53:11.732Z,20.50
2018-11-28T11:55:40.625Z,21.50
2018-11-28T11:58:09.595Z,20.87
2018-11-28T12:00:40.111Z,23.23
2018-11-28T12:03:13.028Z,22.63
2018-11-28T12:05:58.716Z,23.90
2018-11-28T12:08:28.798Z,18.63
2018-11-28T12:10:57.730Z,20.80
2018-11-28T12:13:26.651Z,17.13
2018-11-28T12:15:55.631Z,23.10
2018-11-28T12:18:24.605Z,22.53
2018-11-28T12:20:55.929Z,19.77
2018-11-28T12:23:24.883Z,14.83
2018-11-28T12:25:53.860Z,22.73
2018-11-28T12:28:22.789Z,19.57
2018-11-28T12:30:51.750Z,21.53
2018-11-28T12:33:20.727Z,20.00
2018-11-28T12:35:49.656Z,24.27
2018-11-28T12:38:18.586Z,20.53
2018-11-28T12:40:47.555Z,20.13
2018-11-28T12:43:16.495Z,20.53
2018-11-28T12:45:46.770Z,15.73
2018-11-28T12:48:15.719Z,18.70
2018-11-28T12:50:44.734Z,20.90
2018-11-28T12:53:14.097Z,15.50
2018-11-28T12:55:43.291Z,17.57
2018-11-28T12:58:14.523Z,25.37
2018-11-28T13:00:43.492Z,15.40
2018-11-28T13:03:13.741Z,22.43
2018-11-28T13:05:42.700Z,16.40
2018-11-28T13:08:11.660Z,18.80
2018-11-28T13:10:41.242Z,18.50
2018-11-28T13:13:11.311Z,20.53
2018-11-28T13:15:40.214Z,14.33
2018-11-28T13:18:10.084Z,15.30
2018-11-28T13:20:40.215Z,14.50
2018-11-28T13:23:10.076Z,13.27
2018-11-28T13:25:38.976Z,15.63
2018-11-28T13:28:08.011Z,19.67
2018-11-28T13:30:37.505Z,17.57
2018-11-28T13:33:07.418Z,14.80
2018-11-28T13:35:36.339Z,15.90
2018-11-28T13:38:08.412Z,16.67
2018-11-28T13:40:37.298Z,17.23
2018-11-28T13:43:06.462Z,12.40
2018-11-28T13:45:36.887Z,17.23
2018-11-28T13:48:06.007Z,18.57
2018-11-28T13:50:34.960Z,17.17
2018-11-28T13:53:07.043Z,15.63
2018-11-28T13:55:40.127Z,15.60
2018-11-28T13:58:06.770Z,19.83
2018-11-28T14:00:35.871Z,17.67
2018-11-28T14:03:04.805Z,17.60
2018-11-28T14:05:33.825Z,19.30
2018-11-28T14:08:02.730Z,15.13
2018-11-28T14:10:31.674Z,21.03
2018-11-28T14:13:00.647Z,14.30
2018-11-28T14:15:29.639Z,17.40
2018-11-28T14:18:00.886Z,19.90
2018-11-28T14:20:32.705Z,18.47
2018-11-28T14:23:01.616Z,19.13
2018-11-28T14:25:30.536Z,13.83
2018-11-28T14:27:59.473Z,15.67
2018-11-28T14:30:28.410Z,15.63
2018-11-28T14:32:57.312Z,18.80
2018-11-28T14:35:26.220Z,14.90
2018-11-28T14:37:55.135Z,14.47
2018-11-28T14:40:24.673Z,16.87
2018-11-28T14:42:58.687Z,19.27
2018-11-28T14:45:28.656Z,15.70
2018-11-28T14:47:57.567Z,18.27
2018-11-28T14:50:28.130Z,19.70
2018-11-28T14:53:00.293Z,17.20
2018-11-28T14:55:31.260Z,21.60
2018-11-28T14:58:00.174Z,20.90
2018-11-28T15:00:30.702Z,19.80
2018-11-28T15:03:07.068Z,17.33
2018-11-28T15:05:58.017Z,16.63
2018-11-28T15:08:27.033Z,18.10
2018-11-28T15:11:26.674Z,18.87
2018-11-28T15:13:55.647Z,17.10
2018-11-28T15:16:29.621Z,19.93
2018-11-28T15:18:58.604Z,17.67
2018-11-28T15:21:27.527Z,21.37
2018-11-28T15:23:56.448Z,14.73
2018-11-28T15:26:25.383Z,17.73
2018-11-28T15:28:54.763Z,15.77
2018-11-28T15:31:24.221Z,21.57
2018-11-28T15:33:53.104Z,17.73
2018-11-28T15:36:22.261Z,15.17
2018-11-28T15:38:51.165Z,18.87
2018-11-28T15:41:20.168Z,20.27
2018-11-28T15:43:49.130Z,19.03
2018-11-28T15:46:18.070Z,18.27
2018-11-28T15:48:46.971Z,17.33
2018-11-28T15:51:16.100Z,17.50
2018-11-28T15:53:45.100Z,17.97
2018-11-28T15:56:14.057Z,17.83
2018-11-28T15:58:42.967Z,16.60
2018-11-28T16:01:11.936Z,18.43
2018-11-28T16:03:40.864Z,16.13
2018-11-28T16:06:09.747Z,18.27
2018-11-28T16:08:38.665Z,19.03
2018-11-28T16:11:10.264Z,17.93
2018-11-28T16:13:39.164Z,16.83
2018-11-28T16:16:08.439Z,18.67
2018-11-28T16:18:37.620Z,17.97
2018-11-28T16:21:06.661Z,17.40
2018-11-28T16:23:35.602Z,21.53
2018-11-28T16:26:04.580Z,17.70
2018-11-28T16:28:33.521Z,14.60
2018-11-28T16:31:02.450Z,17.93
2018-11-28T16:33:32.034Z,19.30
2018-11-28T16:36:01.039Z,18.80
2018-11-28T16:38:29.962Z,18.03
2018-11-28T16:40:58.904Z,14.60
2018-11-28T16:43:27.883Z,17.23
2018-11-28T16:45:56.817Z,16.60
2018-11-28T16:48:25.756Z,15.70
2018-11-28T16:50:54.662Z,15.97
2018-11-28T16:53:23.583Z,18.17
2018-11-28T16:55:52.556Z,17.93
2018-11-28T16:58:21.517Z,16.67
2018-11-28T17:00:50.401Z,14.03
2018-11-28T17:03:19.373Z,21.77
2018-11-28T17:05:48.269Z,15.27
2018-11-28T17:08:17.212Z,18.63
2018-11-28T17:10:46.147Z,18.73
2018-11-28T17:13:15.116Z,17.70
2018-11-28T17:15:44.153Z,15.70
2018-11-28T17:18:13.119Z,17.00
2018-11-28T17:20:42.935Z,15.80
2018-11-28T17:23:11.844Z,16.40
2018-11-28T17:25:40.773Z,16.03
2018-11-28T17:28:09.745Z,15.67
2018-11-28T17:30:38.731Z,19.80
2018-11-28T17:33:07.644Z,23.60
2018-11-28T17:35:36.593Z,15.97
2018-11-28T17:38:09.073Z,16.53
2018-11-28T17:40:38.021Z,24.00
2018-11-28T17:43:07.600Z,16.97
2018-11-28T17:45:36.704Z,17.77
2018-11-28T17:48:06.547Z,19.03
2018-11-28T17:50:35.707Z,18.37
2018-11-28T17:53:08.927Z,26.13
2018-11-28T17:55:42.411Z,21.70
2018-11-28T17:58:11.420Z,32.98
2018-11-28T18:00:40.313Z,41.93
2018-11-28T18:03:09.259Z,30.17
2018-11-28T18:05:38.242Z,19.00
2018-11-28T18:08:07.140Z,24.90
2018-11-28T18:10:36.084Z,18.67
2018-11-28T18:13:08.566Z,17.53
2018-11-28T18:15:37.772Z,17.50
2018-11-28T18:18:08.550Z,22.57
2018-11-28T18:20:37.548Z,19.47
2018-11-28T18:23:08.160Z,17.40
2018-11-28T18:25:37.344Z,17.40
2018-11-28T18:28:07.195Z,20.43
2018-11-28T18:30:36.335Z,16.97
2018-11-28T18:33:05.573Z,19.00
2018-11-28T18:35:34.516Z,20.53
2018-11-28T18:38:03.685Z,19.27
2018-11-28T18:40:32.649Z,20.23
2018-11-28T18:43:01.620Z,19.57
2018-11-28T18:45:32.039Z,19.17
2018-11-28T18:48:00.954Z,16.10
2018-11-28T18:50:29.873Z,15.90
2018-11-28T18:52:58.821Z,20.90
2018-11-28T18:55:35.658Z,16.17
2018-11-28T18:58:05.827Z,17.80
2018-11-28T19:00:34.783Z,12.87
2018-11-28T19:03:03.911Z,19.17
2018-11-28T19:05:32.827Z,18.07
2018-11-28T19:08:01.907Z,17.80
2018-11-28T19:10:30.867Z,15.83
2018-11-28T19:12:59.848Z,15.93
2018-11-28T19:15:29.268Z,14.13
2018-11-28T19:17:58.854Z,16.37
2018-11-28T19:20:27.830Z,18.37
2018-11-28T19:22:57.355Z,16.20
2018-11-28T19:25:27.659Z,18.23
2018-11-28T19:27:56.697Z,16.67
2018-11-28T19:30:31.088Z,17.70
2018-11-28T19:32:58.352Z,19.20
2018-11-28T19:35:27.352Z,19.53
2018-11-28T19:37:56.374Z,15.47
2018-11-28T19:40:28.892Z,19.67
2018-11-28T19:42:57.847Z,22.40
2018-11-28T19:45:26.781Z,22.10
2018-11-28T19:47:55.832Z,17.53
2018-11-28T19:50:27.441Z,20.50
2018-11-28T19:52:56.428Z,12.87
2018-11-28T19:55:25.374Z,19.83
2018-11-28T19:57:54.300Z,16.73
2018-11-28T20:00:23.247Z,17.37
2018-11-28T20:02:52.416Z,17.63
2018-11-28T20:05:21.426Z,16.63
2018-11-28T20:07:51.025Z,20.87
2018-11-28T20:10:22.092Z,16.80
2018-11-28T20:12:51.276Z,16.47
2018-11-28T20:15:21.564Z,24.07
2018-11-28T20:17:50.784Z,19.50
2018-11-28T20:20:20.158Z,17.37
2018-11-28T20:22:49.209Z,19.47
2018-11-28T20:25:19.173Z,21.07
2018-11-28T20:27:50.592Z,21.33
2018-11-28T20:30:21.139Z,14.67
2018-11-28T20:32:50.137Z,13.80
2018-11-28T20:35:19.279Z,20.00
2018-11-28T20:37:48.283Z,16.30
2018-11-28T20:40:17.968Z,18.57
2018-11-28T20:42:51.358Z,14.63
2018-11-28T20:45:20.332Z,13.90
2018-11-28T20:47:49.361Z,18.90
2018-11-28T20:50:35.811Z,17.87
2018-11-28T20:53:08.300Z,15.60
2018-11-28T20:55:37.373Z,15.33
2018-11-28T20:58:06.867Z,18.27
2018-11-28T21:00:35.947Z,15.60
2018-11-28T21:03:05.174Z,14.57
2018-11-28T21:05:34.126Z,19.53
2018-11-28T21:08:03.124Z,19.50
2018-11-28T21:10:37.205Z,21.50
2018-11-28T21:13:07.559Z,18.10
2018-11-28T21:15:36.937Z,17.33
2018-11-28T21:18:06.768Z,17.83
2018-11-28T21:20:35.699Z,20.17
2018-11-28T21:23:07.553Z,17.87
2018-11-28T21:25:36.606Z,18.83
2018-11-28T21:28:05.656Z,17.50
2018-11-28T21:30:34.658Z,16.23
2018-11-28T21:33:03.623Z,17.43
2018-11-28T21:35:35.171Z,19.23
2018-11-28T21:38:04.150Z,15.07
2018-11-28T21:40:33.061Z,17.47
2018-11-28T21:43:02.129Z,25.75
2018-11-28T21:45:31.065Z,16.23
2018-11-28T21:48:00.020Z,17.77
2018-11-28T21:50:29.004Z,18.23
2018-11-28T21:52:57.953Z,17.97
2018-11-28T21:55:26.904Z,18.57
2018-11-28T21:57:55.877Z,16.47
2018-11-28T22:00:27.242Z,22.83
2018-11-28T22:02:56.336Z,21.77
2018-11-28T22:05:25.664Z,16.67
2018-11-28T22:07:54.674Z,17.23
2018-11-28T22:10:25.328Z,17.30
2018-11-28T22:12:55.143Z,19.63
2018-11-28T22:15:24.080Z,17.70
2018-11-28T22:17:56.867Z,19.03
2018-11-28T22:20:26.512Z,18.13
2018-11-28T22:22:55.488Z,18.57
2018-11-28T22:25:25.305Z,18.07
2018-11-28T22:27:54.324Z,16.83
2018-11-28T22:30:25.327Z,18.23
2018-11-28T22:32:54.321Z,16.60
2018-11-28T22:35:23.285Z,17.27
2018-11-28T22:37:52.378Z,19.53
2018-11-28T22:40:22.342Z,19.73
2018-11-28T22:42:51.272Z,15.63
2018-11-28T22:45:21.489Z,19.77
2018-11-28T22:47:50.459Z,17.20
2018-11-28T22:50:19.377Z,18.93
2018-11-28T22:52:48.310Z,18.43
2018-11-28T22:55:18.029Z,17.23
2018-11-28T22:57:46.991Z,19.43
2018-11-28T23:00:17.156Z,17.67
2018-11-28T23:02:56.163Z,16.60
2018-11-28T23:05:28.530Z,18.20
2018-11-28T23:07:58.575Z,17.10
2018-11-28T23:10:27.501Z,15.27
2018-11-28T23:12:56.500Z,16.00
2018-11-28T23:15:25.455Z,17.17
2018-11-28T23:17:55.320Z,17.97
2018-11-28T23:20:23.400Z,22.90
2018-11-28T23:22:58.259Z,20.47
2018-11-28T23:25:27.761Z,14.90
2018-11-28T23:28:04.117Z,16.80
2018-11-28T23:30:38.260Z,26.70
2018-11-28T23:33:16.221Z,23.30
2018-11-28T23:35:50.925Z,21.10
2018-11-28T23:38:27.207Z,21.03
2018-11-28T23:41:00.970Z,21.83
2018-11-28T23:43:29.983Z,19.83
2018-11-28T23:48:39.698Z,17.70
2018-11-28T23:51:08.710Z,17.53
2018-11-28T23:53:37.628Z,19.20
2018-11-28T23:56:06.657Z,21.23
2018-11-28T23:58:35.625Z,19.70
